createdAt,value
2022-12-13T00:02:04.003Z,99.90
2022-12-13T00:04:38.309Z,99.90
2022-12-13T00:07:10.730Z,99.90
2022-12-13T00:09:43.413Z,99.90
2022-12-13T00:12:14.344Z,99.90
2022-12-13T00:14:43.638Z,99.90
2022-12-13T00:17:13.538Z,99.90
2022-12-13T00:19:44.169Z,99.90
2022-12-13T00:22:13.898Z,99.90
2022-12-13T00:24:46.109Z,99.90
2022-12-13T00:27:15.575Z,99.90
2022-12-13T00:29:45.110Z,99.90
2022-12-13T00:32:14.120Z,99.90
2022-12-13T00:34:43.667Z,99.90
2022-12-13T00:37:13.061Z,99.90
2022-12-13T00:39:42.235Z,99.90
2022-12-13T00:42:13.958Z,99.90
2022-12-13T00:44:43.015Z,99.90
2022-12-13T00:47:11.896Z,99.90
2022-12-13T00:49:41.126Z,99.90
2022-12-13T00:52:09.845Z,99.90
2022-12-13T00:54:38.791Z,99.90
2022-12-13T00:57:08.589Z,99.90
2022-12-13T00:59:39.265Z,99.90
2022-12-13T01:02:08.235Z,99.90
2022-12-13T01:04:38.657Z,99.90
2022-12-13T01:07:08.682Z,99.90
2022-12-13T01:09:38.087Z,99.90
2022-12-13T01:12:08.970Z,99.90
2022-12-13T01:14:41.437Z,99.90
2022-12-13T01:17:11.045Z,99.90
2022-12-13T01:19:39.984Z,99.90
2022-12-13T01:22:09.271Z,99.90
2022-12-13T01:24:39.165Z,99.90
2022-12-13T01:27:08.394Z,99.90
2022-12-13T01:29:39.943Z,99.90
2022-12-13T01:32:09.421Z,99.90
2022-12-13T01:34:38.165Z,99.90
2022-12-13T01:37:07.917Z,99.90
2022-12-13T01:39:38.572Z,99.90
2022-12-13T01:42:08.099Z,99.90
2022-12-13T01:45:19.413Z,99.90
2022-12-13T01:47:51.246Z,99.90
2022-12-13T01:50:24.517Z,99.90
2022-12-13T01:52:56.824Z,99.90
2022-12-13T01:55:41.686Z,99.90
2022-12-13T01:58:12.985Z,99.90
2022-12-13T02:00:45.396Z,99.90
2022-12-13T02:03:20.855Z,99.90
2022-12-13T02:06:00.576Z,99.90
2022-12-13T02:08:35.579Z,99.90
2022-12-13T02:11:06.790Z,99.90
2022-12-13T02:13:37.593Z,99.90
2022-12-13T02:16:22.563Z,99.90
2022-12-13T02:19:27.694Z,99.90
2022-12-13T02:22:06.777Z,99.90
2022-12-13T02:24:59.295Z,99.90
2022-12-13T02:27:51.229Z,99.90
2022-12-13T02:30:29.961Z,99.90
2022-12-13T02:33:21.501Z,99.90
2022-12-13T02:35:56.970Z,99.90
2022-12-13T02:38:31.410Z,99.90
2022-12-13T02:41:08.236Z,99.90
2022-12-13T02:43:45.656Z,99.90
2022-12-13T02:46:17.899Z,99.90
2022-12-13T02:48:48.976Z,99.90
2022-12-13T02:51:21.371Z,99.90
2022-12-13T02:53:51.038Z,99.90
2022-12-13T02:56:20.582Z,99.90
2022-12-13T02:58:53.977Z,99.90
2022-12-13T03:01:42.501Z,99.90
2022-12-13T03:04:23.439Z,99.90
2022-12-13T03:07:02.393Z,99.90
2022-12-13T03:09:43.412Z,99.90
2022-12-13T03:12:43.101Z,99.90
2022-12-13T03:15:20.073Z,99.90
2022-12-13T03:17:55.807Z,99.90
2022-12-13T03:20:27.050Z,99.90
2022-12-13T03:22:57.668Z,99.90
2022-12-13T03:25:31.799Z,99.90
2022-12-13T03:28:03.178Z,99.90
2022-12-13T03:30:33.302Z,99.90
2022-12-13T03:33:04.441Z,99.90
2022-12-13T03:35:44.862Z,99.90
2022-12-13T03:38:22.614Z,99.90
2022-12-13T03:40:55.217Z,99.90
2022-12-13T03:43:24.271Z,99.90
2022-12-13T03:45:53.643Z,99.90
2022-12-13T03:48:24.980Z,99.90
2022-12-13T03:50:55.166Z,99.90
2022-12-13T03:53:32.752Z,99.90
2022-12-13T03:56:04.053Z,99.90
2022-12-13T03:58:37.330Z,99.90
2022-12-13T04:01:09.426Z,99.90
2022-12-13T04:03:41.749Z,99.90
2022-12-13T04:06:11.022Z,99.90
2022-12-13T04:08:41.519Z,99.90
2022-12-13T04:11:24.225Z,99.90
2022-12-13T04:13:53.567Z,99.90
2022-12-13T04:16:23.464Z,99.90
2022-12-13T04:18:53.817Z,99.90
2022-12-13T04:21:22.884Z,99.90
2022-12-13T04:23:51.894Z,99.90
2022-12-13T04:26:20.712Z,99.90
2022-12-13T04:28:54.510Z,99.90
2022-12-13T04:31:24.163Z,99.90
2022-12-13T04:33:55.025Z,99.90
2022-12-13T04:36:31.795Z,99.90
2022-12-13T04:39:02.705Z,99.90
2022-12-13T04:41:37.109Z,99.90
2022-12-13T04:44:28.839Z,99.90
2022-12-13T04:47:00.829Z,99.90
2022-12-13T04:49:32.743Z,99.90
2022-12-13T04:52:02.434Z,99.90
2022-12-13T04:54:36.317Z,99.90
2022-12-13T04:57:08.076Z,99.90
2022-12-13T04:59:38.290Z,99.90
2022-12-13T05:02:24.125Z,99.90
2022-12-13T05:04:55.217Z,99.90
2022-12-13T05:07:28.110Z,99.90
2022-12-13T05:09:57.936Z,99.90
2022-12-13T05:12:35.696Z,99.90
2022-12-13T05:15:05.791Z,99.90
2022-12-13T05:17:34.965Z,99.90
2022-12-13T05:20:11.986Z,99.90
2022-12-13T05:22:48.624Z,99.90
2022-12-13T05:25:18.573Z,99.90
2022-12-13T05:27:48.272Z,99.90
2022-12-13T05:30:18.133Z,99.90
2022-12-13T05:32:49.923Z,99.90
2022-12-13T05:35:22.854Z,99.90
2022-12-13T05:37:53.300Z,99.90
2022-12-13T05:40:23.679Z,99.90
2022-12-13T05:43:01.423Z,99.90
2022-12-13T05:45:32.450Z,99.90
2022-12-13T05:48:01.901Z,99.90
2022-12-13T05:50:32.857Z,99.90
2022-12-13T05:53:02.127Z,99.90
2022-12-13T05:55:31.120Z,99.90
2022-12-13T05:58:02.347Z,99.90
2022-12-13T06:00:31.802Z,99.90
2022-12-13T06:03:02.033Z,99.90
2022-12-13T06:05:36.552Z,99.90
2022-12-13T06:08:24.300Z,99.90
2022-12-13T06:11:11.132Z,99.90
2022-12-13T06:13:45.176Z,99.90
2022-12-13T06:16:23.202Z,99.90
2022-12-13T06:19:02.773Z,99.90
2022-12-13T06:21:43.477Z,99.90
2022-12-13T06:24:21.536Z,99.90
2022-12-13T06:26:51.903Z,99.90
2022-12-13T06:29:25.712Z,99.90
2022-12-13T06:32:00.986Z,99.90
2022-12-13T06:34:34.699Z,99.90
2022-12-13T06:37:08.594Z,99.90
2022-12-13T06:39:37.836Z,99.90
2022-12-13T06:42:08.917Z,99.90
2022-12-13T06:44:38.225Z,99.90
2022-12-13T06:47:11.689Z,99.90
2022-12-13T06:49:45.055Z,99.90
2022-12-13T06:52:16.272Z,99.90
2022-12-13T06:54:45.731Z,99.90
2022-12-13T06:57:16.705Z,99.90
2022-12-13T06:59:45.923Z,99.90
2022-12-13T07:02:24.535Z,99.90
2022-12-13T07:04:55.089Z,99.90
2022-12-13T07:07:26.202Z,99.90
2022-12-13T07:09:55.095Z,99.90
2022-12-13T07:12:24.317Z,99.90
2022-12-13T07:14:55.143Z,99.90
2022-12-13T07:17:32.333Z,99.90
2022-12-13T07:20:04.760Z,99.90
2022-12-13T07:22:36.857Z,99.90
2022-12-13T07:25:07.731Z,99.90
2022-12-13T07:28:01.332Z,99.90
2022-12-13T07:30:41.227Z,99.90
2022-12-13T07:33:11.030Z,99.90
2022-12-13T07:35:39.934Z,99.90
2022-12-13T07:38:11.664Z,99.90
2022-12-13T07:40:41.787Z,99.90
2022-12-13T07:43:12.283Z,99.90
2022-12-13T07:45:40.712Z,99.90
2022-12-13T07:48:10.009Z,99.90
2022-12-13T07:50:38.776Z,99.90
2022-12-13T07:53:10.235Z,99.90
2022-12-13T07:55:39.335Z,99.90
2022-12-13T07:58:10.161Z,99.90
2022-12-13T08:03:30.854Z,99.90
2022-12-13T08:06:03.636Z,99.90
2022-12-13T08:08:34.291Z,99.90
2022-12-13T08:11:03.847Z,99.90
2022-12-13T08:13:32.547Z,99.90
2022-12-13T08:16:02.269Z,99.90
2022-12-13T08:18:31.408Z,99.90
2022-12-13T08:21:01.010Z,99.90
2022-12-13T08:23:31.554Z,99.90
2022-12-13T08:26:03.119Z,99.90
2022-12-13T08:28:32.073Z,99.90
2022-12-13T08:31:06.253Z,99.90
2022-12-13T08:33:35.733Z,99.90
2022-12-13T08:36:11.826Z,99.90
2022-12-13T08:38:40.574Z,99.90
2022-12-13T08:41:10.705Z,99.90
2022-12-13T08:43:39.341Z,99.90
2022-12-13T08:46:08.484Z,99.90
2022-12-13T08:48:44.472Z,99.90
2022-12-13T08:51:24.568Z,99.90
2022-12-13T08:53:54.247Z,99.90
2022-12-13T08:56:43.641Z,99.90
2022-12-13T08:59:12.512Z,99.90
2022-12-13T09:01:44.700Z,99.90
2022-12-13T09:04:13.304Z,99.90
2022-12-13T09:06:44.431Z,99.90
2022-12-13T09:09:13.003Z,99.90
2022-12-13T09:11:43.217Z,99.90
2022-12-13T09:14:14.014Z,99.90
2022-12-13T09:16:50.893Z,99.90
2022-12-13T09:19:25.870Z,99.90
2022-12-13T09:22:02.065Z,99.90
2022-12-13T09:24:35.747Z,99.90
2022-12-13T09:27:09.466Z,99.90
2022-12-13T09:29:39.342Z,99.90
2022-12-13T09:32:11.054Z,99.90
2022-12-13T09:34:39.940Z,99.90
2022-12-13T09:37:09.124Z,99.90
2022-12-13T09:39:37.571Z,99.90
2022-12-13T09:42:13.228Z,99.90
2022-12-13T09:45:01.020Z,99.90
2022-12-13T09:47:36.201Z,99.90
2022-12-13T09:50:14.790Z,99.90
2022-12-13T09:52:46.224Z,99.90
2022-12-13T09:55:23.102Z,99.90
2022-12-13T09:57:54.881Z,99.90
2022-12-13T10:00:25.911Z,99.90
2022-12-13T10:02:57.313Z,99.90
2022-12-13T10:05:37.264Z,99.90
2022-12-13T10:08:09.701Z,99.90
2022-12-13T10:10:38.337Z,99.90
2022-12-13T10:13:14.954Z,99.90
2022-12-13T10:15:47.382Z,99.90
2022-12-13T10:18:23.055Z,99.90
2022-12-13T10:20:52.988Z,99.90
2022-12-13T10:23:38.747Z,99.90
2022-12-13T10:26:14.916Z,99.90
2022-12-13T10:29:03.435Z,99.90
2022-12-13T10:31:40.254Z,99.90
2022-12-13T10:34:21.707Z,99.90
2022-12-13T10:36:50.574Z,99.90
2022-12-13T10:39:21.167Z,99.90
2022-12-13T10:41:49.692Z,99.90
2022-12-13T10:44:23.454Z,99.90
2022-12-13T10:47:05.352Z,99.90
2022-12-13T10:49:40.754Z,99.90
2022-12-13T10:52:31.462Z,99.90
2022-12-13T10:55:04.751Z,99.90
2022-12-13T10:57:54.093Z,99.90
2022-12-13T11:00:38.178Z,99.90
2022-12-13T11:03:08.829Z,99.90
2022-12-13T11:05:40.993Z,99.90
2022-12-13T11:08:21.221Z,99.90
2022-12-13T11:10:59.218Z,99.90
2022-12-13T11:13:35.294Z,99.90
2022-12-13T11:16:07.139Z,99.90
2022-12-13T11:18:38.894Z,99.90
2022-12-13T11:21:09.517Z,99.90
2022-12-13T11:23:44.547Z,99.90
2022-12-13T11:26:24.408Z,99.90
2022-12-13T11:29:12.756Z,99.90
2022-12-13T11:31:52.145Z,99.90
2022-12-13T11:34:35.471Z,99.90
2022-12-13T11:37:12.949Z,99.90
2022-12-13T11:39:47.130Z,99.90
2022-12-13T11:42:23.070Z,99.90
2022-12-13T11:45:01.584Z,99.40
2022-12-13T11:47:39.055Z,98.80
2022-12-13T11:50:33.076Z,96.20
2022-12-13T11:53:20.893Z,93.40
2022-12-13T11:55:54.848Z,92.30
2022-12-13T12:01:22.708Z,85.90
2022-12-13T12:03:58.370Z,86.50
2022-12-13T12:06:33.740Z,86.20
2022-12-13T12:09:03.641Z,81.90
2022-12-13T12:11:37.090Z,81.60
2022-12-13T12:14:11.968Z,81.70
2022-12-13T12:16:44.632Z,81.70
2022-12-13T12:19:17.710Z,80.10
2022-12-13T12:22:16.063Z,77.50
2022-12-13T12:25:02.037Z,75.30
2022-12-13T12:27:40.713Z,74.50
2022-12-13T12:30:22.880Z,74.30
2022-12-13T12:32:56.543Z,73.20
2022-12-13T12:35:51.709Z,72.30
2022-12-13T12:38:49.083Z,72.10
2022-12-13T12:41:43.549Z,74.10
2022-12-13T12:44:23.917Z,73.40
2022-12-13T12:47:38.213Z,73.20
2022-12-13T12:50:17.369Z,73.90
2022-12-13T12:52:55.210Z,72.40
2022-12-13T12:55:37.342Z,71.30
2022-12-13T12:58:17.406Z,70.50
2022-12-13T13:00:54.211Z,70.70
2022-12-13T13:03:25.156Z,73.00
2022-12-13T13:06:02.015Z,75.40
2022-12-13T13:08:38.316Z,76.00
2022-12-13T13:11:24.453Z,75.10
2022-12-13T13:14:04.644Z,75.50
2022-12-13T13:16:37.913Z,75.40
2022-12-13T13:19:07.228Z,75.00
2022-12-13T13:21:48.668Z,75.00
2022-12-13T13:24:27.250Z,75.40
2022-12-13T13:26:58.385Z,75.70
2022-12-13T13:29:38.019Z,75.20
2022-12-13T13:32:30.352Z,75.30
2022-12-13T13:35:41.609Z,76.10
2022-12-13T13:39:01.343Z,77.40
2022-12-13T13:41:57.935Z,78.80
2022-12-13T13:44:54.776Z,79.70
2022-12-13T13:47:39.120Z,80.70
2022-12-13T13:50:46.715Z,81.10
2022-12-13T13:53:46.777Z,81.80
2022-12-13T13:56:50.390Z,81.10
2022-12-13T13:59:52.619Z,80.60
2022-12-13T14:02:49.361Z,79.90
2022-12-13T14:06:16.152Z,80.50
2022-12-13T14:09:02.972Z,80.80
2022-12-13T14:12:13.772Z,81.70
2022-12-13T14:15:38.178Z,82.60
2022-12-13T14:18:42.358Z,84.00
2022-12-13T14:21:26.952Z,84.10
2022-12-13T14:24:06.230Z,85.00
2022-12-13T14:26:45.555Z,85.40
2022-12-13T14:29:26.326Z,85.70
2022-12-13T14:31:56.027Z,85.90
2022-12-13T14:34:35.563Z,86.50
2022-12-13T14:37:05.522Z,86.60
2022-12-13T14:39:37.007Z,87.20
2022-12-13T14:42:26.861Z,87.70
2022-12-13T14:44:56.770Z,88.20
2022-12-13T14:47:28.599Z,88.60
2022-12-13T14:50:00.667Z,88.90
2022-12-13T14:52:37.109Z,89.10
2022-12-13T14:55:07.516Z,89.40
2022-12-13T14:57:38.294Z,89.60
2022-12-13T15:00:26.379Z,90.10
2022-12-13T15:03:00.341Z,90.60
2022-12-13T15:05:34.564Z,91.30
2022-12-13T15:08:10.242Z,91.70
2022-12-13T15:10:48.212Z,92.00
2022-12-13T15:13:29.294Z,92.80
2022-12-13T15:16:10.088Z,93.30
2022-12-13T15:18:50.501Z,93.90
2022-12-13T15:21:28.198Z,94.30
2022-12-13T15:24:01.076Z,95.10
2022-12-13T15:26:34.604Z,95.00
2022-12-13T15:29:09.802Z,94.50
2022-12-13T15:31:40.472Z,94.70
2022-12-13T15:34:40.986Z,94.90
2022-12-13T15:37:29.049Z,95.60
2022-12-13T15:40:03.000Z,96.30
2022-12-13T15:42:35.475Z,97.00
2022-12-13T15:45:08.088Z,97.50
2022-12-13T15:47:37.794Z,96.70
2022-12-13T15:50:09.024Z,96.40
2022-12-13T15:52:47.896Z,96.90
2022-12-13T15:55:32.570Z,97.70
2022-12-13T15:58:02.732Z,98.20
2022-12-13T16:00:36.680Z,98.90
2022-12-13T16:03:14.647Z,99.50
2022-12-13T16:05:54.484Z,99.90
2022-12-13T16:08:30.353Z,99.90
2022-12-13T16:11:00.673Z,99.90
2022-12-13T16:13:32.024Z,99.90
2022-12-13T16:16:08.898Z,99.90
2022-12-13T16:18:48.244Z,99.90
2022-12-13T16:21:19.442Z,99.90
2022-12-13T16:23:51.369Z,99.90
2022-12-13T16:26:27.464Z,99.90
2022-12-13T16:28:58.818Z,99.90
2022-12-13T16:31:31.768Z,99.90
2022-12-13T16:34:02.722Z,99.90
2022-12-13T16:36:32.906Z,99.90
2022-12-13T16:39:06.201Z,99.90
2022-12-13T16:41:41.645Z,99.90
2022-12-13T16:44:16.735Z,99.90
2022-12-13T16:47:12.405Z,99.90
2022-12-13T16:49:47.759Z,99.90
2022-12-13T16:52:20.200Z,99.90
2022-12-13T16:54:54.184Z,99.90
2022-12-13T16:57:28.052Z,99.90
2022-12-13T16:59:59.205Z,99.90
2022-12-13T17:02:28.912Z,99.90
2022-12-13T17:43:06.027Z,99.90
2022-12-13T18:23:25.529Z,99.90
2022-12-13T18:24:55.118Z,99.90
2022-12-13T18:27:24.196Z,99.90
2022-12-13T18:29:55.042Z,99.90
2022-12-13T18:32:24.622Z,99.90
2022-12-13T18:34:54.703Z,99.90
2022-12-13T18:37:23.492Z,99.90
2022-12-13T18:39:54.822Z,99.90
2022-12-13T18:42:23.958Z,99.90
2022-12-13T18:44:54.371Z,99.90
2022-12-13T18:47:23.518Z,99.90
2022-12-13T18:49:54.834Z,99.90
2022-12-13T18:52:25.089Z,99.90
2022-12-13T18:54:55.495Z,99.90
2022-12-13T18:57:24.179Z,99.90
2022-12-13T18:59:54.423Z,99.90
2022-12-13T19:02:24.031Z,99.90
2022-12-13T19:04:55.085Z,99.90
2022-12-13T19:07:26.499Z,99.90
2022-12-13T20:49:48.325Z,99.90
2022-12-13T20:52:19.950Z,99.90
2022-12-13T20:54:49.020Z,99.90
2022-12-13T20:57:17.639Z,99.90
2022-12-13T20:59:46.282Z,99.90
2022-12-13T21:02:15.152Z,99.90
2022-12-13T21:04:44.073Z,99.90
2022-12-13T21:07:13.140Z,99.90
2022-12-13T21:09:43.529Z,99.90
2022-12-13T21:12:12.790Z,99.90
2022-12-13T21:14:41.564Z,99.90
2022-12-13T21:17:12.155Z,99.90
2022-12-13T21:19:41.866Z,99.90
2022-12-13T21:22:17.744Z,99.90
2022-12-13T21:24:48.087Z,99.90
2022-12-13T21:27:16.769Z,99.90
2022-12-13T21:29:45.466Z,99.90
2022-12-13T21:32:14.434Z,99.90
2022-12-13T21:34:43.290Z,99.90
2022-12-13T21:37:12.314Z,99.90
2022-12-13T21:39:42.151Z,99.90
2022-12-13T21:42:14.015Z,99.90
2022-12-13T21:44:42.729Z,99.90
2022-12-13T21:47:12.874Z,99.90
2022-12-13T21:49:48.384Z,99.90
2022-12-13T21:52:18.269Z,99.90
2022-12-13T21:54:46.990Z,99.90
2022-12-13T21:57:34.246Z,99.90
2022-12-13T22:00:03.030Z,99.90
2022-12-13T22:02:42.050Z,99.90
2022-12-13T22:05:11.921Z,99.90
2022-12-13T22:07:41.124Z,99.90
2022-12-13T22:10:11.119Z,99.90
2022-12-13T22:12:42.913Z,99.90
2022-12-13T22:15:13.397Z,99.90
2022-12-13T22:17:43.578Z,99.90
2022-12-13T22:20:15.558Z,99.90
2022-12-13T22:22:47.157Z,99.90
2022-12-13T22:25:15.892Z,99.90
2022-12-13T22:27:46.198Z,99.90
2022-12-13T22:30:15.174Z,99.90
2022-12-13T22:32:43.851Z,99.90
2022-12-13T22:35:14.757Z,99.90
2022-12-13T22:37:43.482Z,99.90
2022-12-13T22:40:13.919Z,99.90
2022-12-13T22:42:43.256Z,99.90
2022-12-13T22:45:18.847Z,99.90
2022-12-13T22:47:48.861Z,99.90
2022-12-13T22:50:18.508Z,99.90
2022-12-13T22:52:49.218Z,99.90
2022-12-13T22:55:18.533Z,99.90
2022-12-13T22:57:48.713Z,99.90
2022-12-13T23:00:19.880Z,99.90
2022-12-13T23:02:49.249Z,99.90
2022-12-13T23:05:21.398Z,99.90
2022-12-13T23:07:49.859Z,99.90
2022-12-13T23:10:33.067Z,99.90
2022-12-13T23:13:05.366Z,99.90
2022-12-13T23:15:41.406Z,99.90
2022-12-13T23:18:14.192Z,99.90
2022-12-13T23:20:43.869Z,99.90
2022-12-13T23:23:18.234Z,99.90
2022-12-13T23:25:48.777Z,99.90
2022-12-13T23:28:18.752Z,99.90
2022-12-13T23:30:49.928Z,99.90
2022-12-13T23:33:19.849Z,99.90
2022-12-13T23:36:06.334Z,99.90
2022-12-13T23:38:40.246Z,99.90
2022-12-13T23:41:14.076Z,99.90
2022-12-13T23:43:45.925Z,99.90
2022-12-13T23:46:22.219Z,99.90
2022-12-13T23:48:52.593Z,99.90
2022-12-13T23:51:23.160Z,99.90
2022-12-13T23:53:53.306Z,99.90
2022-12-13T23:56:26.908Z,99.90
2022-12-13T23:58:56.206Z,99.90
